createdAt,value
2018-08-24T00:01:33.547Z,2.03
2018-08-24T00:04:06.379Z,2.60
2018-08-24T00:06:34.884Z,3.43
2018-08-24T00:09:04.028Z,2.80
2018-08-24T00:11:32.491Z,2.37
2018-08-24T00:14:00.911Z,2.67
2018-08-24T00:16:34.658Z,2.50
2018-08-24T00:19:03.171Z,3.43
2018-08-24T00:21:31.603Z,2.90
2018-08-24T00:24:00.312Z,2.60
2018-08-24T00:26:28.764Z,2.90
2018-08-24T00:29:00.166Z,2.90
2018-08-24T00:31:28.607Z,3.00
2018-08-24T00:33:57.012Z,2.90
2018-08-24T00:36:26.805Z,2.60
2018-08-24T00:38:56.070Z,2.67
2018-08-24T00:41:24.571Z,3.35
2018-08-24T00:43:52.984Z,2.47
2018-08-24T00:46:22.160Z,2.70
2018-08-24T00:48:50.599Z,2.90
2018-08-24T00:51:19.224Z,2.60
2018-08-24T00:53:47.648Z,2.03
2018-08-24T00:56:16.194Z,2.43
2018-08-24T00:58:44.635Z,2.63
2018-08-24T01:01:13.210Z,2.63
2018-08-24T01:03:41.638Z,2.87
2018-08-24T01:06:10.260Z,2.90
2018-08-24T01:08:38.669Z,3.03
2018-08-24T01:11:07.229Z,3.57
2018-08-24T01:13:35.631Z,3.58
2018-08-24T01:16:04.108Z,3.33
2018-08-24T01:18:37.721Z,3.03
2018-08-24T01:21:06.375Z,3.57
2018-08-24T01:23:35.428Z,3.20
2018-08-24T01:26:03.965Z,2.90
2018-08-24T01:28:32.620Z,3.20
2018-08-24T01:31:07.796Z,3.33
2018-08-24T01:33:36.244Z,3.05
2018-08-24T01:36:04.963Z,2.80
2018-08-24T01:39:36.206Z,3.13
2018-08-24T01:42:04.779Z,3.20
2018-08-24T01:44:33.696Z,3.00
2018-08-24T01:47:02.278Z,3.20
2018-08-24T01:49:30.685Z,3.15
2018-08-24T01:51:59.154Z,2.90
2018-08-24T01:54:27.592Z,3.50
2018-08-24T01:56:56.194Z,3.00
2018-08-24T01:59:24.595Z,3.10
2018-08-24T02:01:53.072Z,3.13
2018-08-24T02:04:21.469Z,3.10
2018-08-24T02:06:49.945Z,2.97
2018-08-24T02:09:21.987Z,3.40
2018-08-24T02:11:51.229Z,3.30
2018-08-24T02:14:25.242Z,3.30
2018-08-24T02:16:53.998Z,3.10
2018-08-24T02:21:34.128Z,3.20
2018-08-24T02:24:02.580Z,3.03
2018-08-24T02:26:31.054Z,2.30
2018-08-24T02:28:59.490Z,2.40
2018-08-24T02:31:32.487Z,3.00
2018-08-24T02:34:01.176Z,3.27
2018-08-24T02:36:29.662Z,2.97
2018-08-24T02:38:58.074Z,3.73
2018-08-24T02:41:26.532Z,3.33
2018-08-24T02:43:54.941Z,3.93
2018-08-24T02:46:23.402Z,4.00
2018-08-24T02:48:51.953Z,3.80
2018-08-24T02:51:20.422Z,3.50
2018-08-24T02:53:48.844Z,4.00
2018-08-24T02:56:17.357Z,5.43
2018-08-24T02:58:45.755Z,3.70
2018-08-24T03:01:14.204Z,3.97
2018-08-24T03:03:42.631Z,4.00
2018-08-24T03:06:11.263Z,4.45
2018-08-24T03:08:39.687Z,3.67
2018-08-24T03:11:08.304Z,3.60
2018-08-24T03:13:36.750Z,3.20
2018-08-24T03:16:05.254Z,3.07
2018-08-24T03:18:33.740Z,3.20
2018-08-24T03:21:02.200Z,3.00
2018-08-24T03:23:30.623Z,3.05
2018-08-24T03:25:59.145Z,3.10
2018-08-24T03:28:28.021Z,3.22
2018-08-24T03:30:56.441Z,3.07
2018-08-24T03:33:24.859Z,3.20
2018-08-24T03:35:53.531Z,3.90
2018-08-24T03:38:21.928Z,4.03
2018-08-24T03:40:50.550Z,3.00
2018-08-24T03:43:19.122Z,2.73
2018-08-24T03:45:47.612Z,2.65
2018-08-24T03:48:16.268Z,2.67
2018-08-24T03:50:44.804Z,3.63
2018-08-24T03:53:13.530Z,3.20
2018-08-24T03:55:43.961Z,3.30
2018-08-24T03:58:12.416Z,2.67
2018-08-24T04:00:40.855Z,3.40
2018-08-24T04:03:09.315Z,3.20
2018-08-24T04:05:37.731Z,4.00
2018-08-24T04:08:06.211Z,3.90
2018-08-24T04:10:34.661Z,2.87
2018-08-24T04:13:03.161Z,3.90
2018-08-24T04:15:32.291Z,3.13
2018-08-24T04:18:00.759Z,4.20
2018-08-24T04:20:29.172Z,2.93
2018-08-24T04:22:57.614Z,3.97
2018-08-24T04:25:26.049Z,3.87
2018-08-24T04:27:54.528Z,4.40
2018-08-24T04:30:23.176Z,4.65
2018-08-24T04:32:51.623Z,4.10
2018-08-24T04:35:20.028Z,4.17
2018-08-24T04:37:48.485Z,4.20
2018-08-24T04:40:17.139Z,4.17
2018-08-24T04:42:45.511Z,3.77
2018-08-24T04:45:13.910Z,3.20
2018-08-24T04:47:42.365Z,3.83
2018-08-24T04:50:10.834Z,3.67
2018-08-24T04:52:39.296Z,4.00
2018-08-24T04:55:07.756Z,4.80
2018-08-24T04:57:36.319Z,4.55
2018-08-24T05:00:05.011Z,3.53
2018-08-24T05:02:33.490Z,3.70
2018-08-24T05:05:01.946Z,4.80
2018-08-24T05:07:30.395Z,4.10
2018-08-24T05:09:59.119Z,4.53
2018-08-24T05:12:27.560Z,4.23
2018-08-24T05:14:55.993Z,3.90
2018-08-24T05:17:24.464Z,5.00
2018-08-24T05:19:52.917Z,4.13
2018-08-24T05:22:21.387Z,4.90
2018-08-24T05:24:49.886Z,5.03
2018-08-24T05:27:18.293Z,4.45
2018-08-24T05:29:46.714Z,8.30
2018-08-24T05:32:15.220Z,4.90
2018-08-24T05:34:43.632Z,5.77
2018-08-24T05:37:12.099Z,4.93
2018-08-24T05:39:40.531Z,5.37
2018-08-24T05:42:09.225Z,5.25
2018-08-24T05:44:37.692Z,4.90
2018-08-24T05:47:06.105Z,5.27
2018-08-24T05:49:34.546Z,5.17
2018-08-24T05:52:03.171Z,4.60
2018-08-24T05:54:31.658Z,5.80
2018-08-24T05:57:00.077Z,4.93
2018-08-24T05:59:28.524Z,5.83
2018-08-24T06:01:56.975Z,5.10
2018-08-24T06:04:25.437Z,4.60
2018-08-24T06:06:55.500Z,4.53
2018-08-24T06:09:24.061Z,4.50
2018-08-24T06:11:52.552Z,6.10
2018-08-24T06:14:20.992Z,4.27
2018-08-24T06:16:54.732Z,5.40
2018-08-24T06:19:23.282Z,5.73
2018-08-24T06:21:51.949Z,4.90
2018-08-24T06:24:21.020Z,5.53
2018-08-24T06:26:49.603Z,4.50
2018-08-24T06:29:18.347Z,4.50
2018-08-24T06:31:46.801Z,4.50
2018-08-24T06:34:15.203Z,4.73
2018-08-24T06:36:43.895Z,5.00
2018-08-24T06:39:13.811Z,4.70
2018-08-24T06:41:43.423Z,4.93
2018-08-24T06:44:12.325Z,3.83
2018-08-24T06:46:40.727Z,5.47
2018-08-24T06:49:09.418Z,6.20
2018-08-24T06:51:37.919Z,4.17
2018-08-24T06:54:06.852Z,4.30
2018-08-24T06:56:35.261Z,4.57
2018-08-24T06:59:03.721Z,3.87
2018-08-24T07:01:32.175Z,5.03
2018-08-24T07:04:00.615Z,4.13
2018-08-24T07:06:29.048Z,3.67
2018-08-24T07:08:57.487Z,3.10
2018-08-24T07:11:25.948Z,3.07
2018-08-24T07:13:54.367Z,3.13
2018-08-24T07:16:22.778Z,3.20
2018-08-24T07:18:51.237Z,3.13
2018-08-24T07:21:19.636Z,3.33
2018-08-24T07:23:48.523Z,3.27
2018-08-24T07:26:16.941Z,3.60
2018-08-24T07:28:45.361Z,5.17
2018-08-24T07:31:13.780Z,3.83
2018-08-24T07:33:42.191Z,4.20
2018-08-24T07:36:10.643Z,2.97
2018-08-24T07:38:39.087Z,3.10
2018-08-24T07:41:07.627Z,3.63
2018-08-24T07:43:36.079Z,2.67
2018-08-24T07:46:04.742Z,3.10
2018-08-24T07:48:33.198Z,4.03
2018-08-24T07:51:01.688Z,3.10
2018-08-24T07:53:30.187Z,2.62
2018-08-24T07:55:58.704Z,3.23
2018-08-24T07:58:27.144Z,3.10
2018-08-24T08:00:55.545Z,4.53
2018-08-24T08:03:23.941Z,3.83
2018-08-24T08:05:52.402Z,3.60
2018-08-24T08:08:20.815Z,3.90
2018-08-24T08:10:49.305Z,3.08
2018-08-24T08:13:17.714Z,3.13
2018-08-24T08:15:46.164Z,3.60
2018-08-24T08:18:15.228Z,3.27
2018-08-24T08:20:43.630Z,3.90
2018-08-24T08:23:12.075Z,4.07
2018-08-24T08:25:40.672Z,4.20
2018-08-24T08:28:09.696Z,3.30
2018-08-24T08:30:38.757Z,3.27
2018-08-24T08:33:07.347Z,3.70
2018-08-24T08:35:35.756Z,4.00
2018-08-24T08:38:04.210Z,3.07
2018-08-24T08:40:32.803Z,3.43
2018-08-24T08:43:01.188Z,4.07
2018-08-24T08:45:29.633Z,3.20
2018-08-24T08:47:58.077Z,3.67
2018-08-24T08:50:26.552Z,4.50
2018-08-24T08:52:55.048Z,3.95
2018-08-24T08:55:23.485Z,3.77
2018-08-24T08:57:52.077Z,3.15
2018-08-24T09:00:20.479Z,4.53
2018-08-24T09:02:48.943Z,3.50
2018-08-24T09:05:17.359Z,4.30
2018-08-24T09:07:45.786Z,3.87
2018-08-24T09:10:14.253Z,3.70
2018-08-24T09:12:43.350Z,3.90
2018-08-24T09:15:11.773Z,3.57
2018-08-24T09:17:45.424Z,3.97
2018-08-24T09:20:18.955Z,3.47
2018-08-24T09:22:52.485Z,3.70
2018-08-24T09:25:26.341Z,4.17
2018-08-24T09:27:59.959Z,4.70
2018-08-24T09:30:32.239Z,3.63
2018-08-24T09:33:00.778Z,3.07
2018-08-24T09:35:29.161Z,5.03
2018-08-24T09:37:57.604Z,3.90
2018-08-24T09:40:31.287Z,3.87
2018-08-24T09:43:04.007Z,4.57
2018-08-24T09:45:32.635Z,4.03
2018-08-24T09:49:09.142Z,4.53
2018-08-24T09:51:37.773Z,4.43
2018-08-24T09:54:08.156Z,4.73
2018-08-24T09:56:38.080Z,5.03
2018-08-24T09:59:06.711Z,3.97
2018-08-24T10:01:40.667Z,4.73
2018-08-24T10:04:14.494Z,4.45
2018-08-24T10:06:48.565Z,4.33
2018-08-24T10:09:17.131Z,5.70
2018-08-24T10:11:45.701Z,5.07
2018-08-24T10:14:14.155Z,6.47
2018-08-24T10:16:42.724Z,4.90
2018-08-24T10:19:15.398Z,4.70
2018-08-24T10:21:43.955Z,4.23
2018-08-24T10:24:12.742Z,5.40
2018-08-24T10:26:41.467Z,5.10
2018-08-24T10:29:10.210Z,4.40
2018-08-24T10:31:38.854Z,5.93
2018-08-24T10:34:07.312Z,5.03
2018-08-24T10:36:36.149Z,5.77
2018-08-24T10:39:06.515Z,4.35
2018-08-24T10:41:34.851Z,5.13
2018-08-24T10:44:03.894Z,5.40
2018-08-24T10:46:32.399Z,5.27
2018-08-24T10:49:00.908Z,4.70
2018-08-24T10:51:29.369Z,5.33
2018-08-24T10:53:58.008Z,5.10
2018-08-24T10:56:26.796Z,4.43
2018-08-24T10:58:55.657Z,4.60
2018-08-24T11:01:24.147Z,5.43
2018-08-24T11:03:52.815Z,3.70
2018-08-24T11:06:21.251Z,4.17
2018-08-24T11:08:49.851Z,4.50
2018-08-24T11:11:18.259Z,5.50
2018-08-24T11:13:46.740Z,4.20
2018-08-24T11:16:15.142Z,4.50
2018-08-24T11:18:43.575Z,5.27
2018-08-24T11:21:12.081Z,4.87
2018-08-24T11:23:40.519Z,3.72
2018-08-24T11:26:08.973Z,5.15
2018-08-24T11:28:37.398Z,4.73
2018-08-24T11:31:05.851Z,5.00
2018-08-24T11:33:34.291Z,3.77
2018-08-24T11:36:02.824Z,4.40
2018-08-24T11:38:31.211Z,5.00
2018-08-24T11:40:59.649Z,4.87
2018-08-24T11:43:28.147Z,4.10
2018-08-24T11:45:56.582Z,4.53
2018-08-24T11:48:27.338Z,4.30
2018-08-24T11:50:56.663Z,4.20
2018-08-24T11:53:25.576Z,4.30
2018-08-24T11:55:54.049Z,4.30
2018-08-24T11:58:22.621Z,3.60
2018-08-24T12:00:51.083Z,3.77
2018-08-24T12:03:19.503Z,3.67
2018-08-24T12:05:47.941Z,4.20
2018-08-24T12:08:16.414Z,3.53
2018-08-24T12:10:44.836Z,3.90
2018-08-24T12:13:13.292Z,2.90
2018-08-24T12:15:42.006Z,3.90
2018-08-24T12:18:10.514Z,3.42
2018-08-24T12:20:38.942Z,3.50
2018-08-24T12:23:07.456Z,3.97
2018-08-24T12:25:35.938Z,2.80
2018-08-24T12:28:04.560Z,3.60
2018-08-24T12:30:33.271Z,3.77
2018-08-24T12:33:01.900Z,3.30
2018-08-24T12:35:30.349Z,2.90
2018-08-24T12:37:58.997Z,2.70
2018-08-24T12:40:27.408Z,2.60
2018-08-24T12:42:55.872Z,3.10
2018-08-24T12:45:24.396Z,3.80
2018-08-24T12:47:52.793Z,3.23
2018-08-24T12:50:21.532Z,2.70
2018-08-24T12:52:50.182Z,2.73
2018-08-24T12:55:18.677Z,3.00
2018-08-24T12:57:47.095Z,2.98
2018-08-24T13:00:15.734Z,3.10
2018-08-24T13:02:44.206Z,3.07
2018-08-24T13:05:12.641Z,3.90
2018-08-24T13:07:41.086Z,3.53
2018-08-24T13:10:09.556Z,3.80
2018-08-24T13:12:38.016Z,3.63
2018-08-24T13:15:06.508Z,3.53
2018-08-24T13:17:34.966Z,3.00
2018-08-24T13:20:03.619Z,3.70
2018-08-24T13:22:32.084Z,3.93
2018-08-24T13:25:00.559Z,3.40
2018-08-24T13:27:28.951Z,3.55
2018-08-24T13:29:57.375Z,3.50
2018-08-24T13:32:26.153Z,4.10
2018-08-24T13:34:54.587Z,2.90
2018-08-24T13:37:24.217Z,3.90
2018-08-24T13:39:52.988Z,3.53
2018-08-24T13:42:21.843Z,3.40
2018-08-24T13:44:50.528Z,3.43
2018-08-24T13:47:18.989Z,3.93
2018-08-24T13:49:47.558Z,3.17
2018-08-24T13:52:16.129Z,3.67
2018-08-24T13:54:44.862Z,3.40
2018-08-24T13:57:13.508Z,3.53
2018-08-24T13:59:42.416Z,3.47
2018-08-24T14:02:11.132Z,3.70
2018-08-24T14:04:39.820Z,3.80
2018-08-24T14:07:08.476Z,4.13
2018-08-24T14:09:37.145Z,3.45
2018-08-24T14:12:05.971Z,3.10
2018-08-24T14:14:34.603Z,3.33
2018-08-24T14:17:03.463Z,3.17
2018-08-24T14:19:31.916Z,3.05
2018-08-24T14:22:00.672Z,3.63
2018-08-24T14:24:30.000Z,4.72
2018-08-24T14:26:58.436Z,3.27
2018-08-24T14:29:26.899Z,3.45
2018-08-24T14:31:55.486Z,3.20
2018-08-24T14:34:23.996Z,4.17
2018-08-24T14:36:53.104Z,3.03
2018-08-24T14:39:21.785Z,4.10
2018-08-24T14:41:50.286Z,3.90
2018-08-24T14:44:18.725Z,3.50
2018-08-24T14:46:47.135Z,3.13
2018-08-24T14:49:15.600Z,3.77
2018-08-24T14:51:44.051Z,3.70
2018-08-24T14:54:12.471Z,3.00
2018-08-24T14:56:40.940Z,3.20
2018-08-24T14:59:09.383Z,3.10
2018-08-24T15:01:37.772Z,3.53
2018-08-24T15:04:06.205Z,3.67
2018-08-24T15:06:34.831Z,2.90
2018-08-24T15:09:03.431Z,3.00
2018-08-24T15:11:31.879Z,3.47
2018-08-24T15:14:00.311Z,3.02
2018-08-24T15:16:28.742Z,4.03
2018-08-24T15:18:57.173Z,4.77
2018-08-24T15:21:26.543Z,4.10
2018-08-24T15:23:55.449Z,4.27
2018-08-24T15:26:23.912Z,3.87
2018-08-24T15:28:52.416Z,3.70
2018-08-24T15:31:21.059Z,3.00
2018-08-24T15:33:49.737Z,3.63
2018-08-24T15:36:18.433Z,3.00
2018-08-24T15:39:49.737Z,2.83
2018-08-24T15:42:18.196Z,3.57
2018-08-24T15:44:46.685Z,2.92
2018-08-24T15:47:15.116Z,2.63
2018-08-24T15:49:43.528Z,2.83
2018-08-24T15:52:12.216Z,2.27
2018-08-24T15:54:40.707Z,3.20
2018-08-24T15:57:09.062Z,3.10
2018-08-24T15:59:37.926Z,7.10
2018-08-24T16:02:06.470Z,3.80
2018-08-24T16:04:34.896Z,2.80
2018-08-24T16:07:03.325Z,2.83
2018-08-24T16:09:31.734Z,3.07
2018-08-24T16:12:00.293Z,2.70
2018-08-24T16:14:28.695Z,2.17
2018-08-24T16:16:57.171Z,2.70
2018-08-24T16:19:25.591Z,2.23
2018-08-24T16:21:54.076Z,3.13
2018-08-24T16:24:22.819Z,1.83
2018-08-24T16:26:51.233Z,2.60
2018-08-24T16:29:19.631Z,2.00
2018-08-24T16:31:48.058Z,2.70
2018-08-24T16:34:16.508Z,2.17
2018-08-24T16:36:44.956Z,2.80
2018-08-24T16:39:13.422Z,2.30
2018-08-24T16:41:41.863Z,2.23
2018-08-24T16:44:10.440Z,2.30
2018-08-24T16:46:38.985Z,2.30
2018-08-24T16:49:07.550Z,2.47
2018-08-24T16:51:35.989Z,3.10
2018-08-24T16:54:04.415Z,2.70
2018-08-24T16:56:32.900Z,2.93
2018-08-24T16:59:01.324Z,3.67
2018-08-24T17:01:29.779Z,2.23
2018-08-24T17:03:58.480Z,2.17
2018-08-24T17:06:26.930Z,3.17
2018-08-24T17:08:55.390Z,2.92
2018-08-24T17:11:23.968Z,2.60
2018-08-24T17:13:52.895Z,2.92
2018-08-24T17:16:22.048Z,3.27
2018-08-24T17:18:50.467Z,2.95
2018-08-24T17:21:18.943Z,2.50
2018-08-24T17:23:47.403Z,2.47
2018-08-24T17:26:15.931Z,2.40
2018-08-24T17:28:45.166Z,2.93
2018-08-24T17:31:13.501Z,4.13
2018-08-24T17:33:41.960Z,3.20
2018-08-24T17:36:10.395Z,2.50
2018-08-24T17:38:38.810Z,3.03
2018-08-24T17:41:07.265Z,2.50
2018-08-24T17:43:35.689Z,3.87
2018-08-24T17:46:04.145Z,2.80
2018-08-24T17:48:32.599Z,2.67
2018-08-24T17:51:01.316Z,3.85
2018-08-24T17:53:29.939Z,3.50
2018-08-24T17:55:58.379Z,2.87
2018-08-24T17:58:26.856Z,3.20
2018-08-24T18:00:55.314Z,3.97
2018-08-24T18:03:23.899Z,2.90
2018-08-24T18:05:52.608Z,3.00
2018-08-24T18:08:20.983Z,3.83
2018-08-24T18:10:49.453Z,3.60
2018-08-24T18:13:17.866Z,3.40
2018-08-24T18:15:46.404Z,3.30
2018-08-24T18:18:16.144Z,3.37
2018-08-24T18:20:44.729Z,3.75
2018-08-24T18:23:13.616Z,3.30
2018-08-24T18:25:42.207Z,3.20
2018-08-24T18:28:10.671Z,3.67
2018-08-24T18:30:39.094Z,3.03
2018-08-24T18:33:07.725Z,3.40
2018-08-24T18:35:36.188Z,3.60
2018-08-24T18:38:04.669Z,4.08
2018-08-24T18:40:33.128Z,2.80
2018-08-24T18:43:01.588Z,2.77
2018-08-24T18:45:30.038Z,5.53
2018-08-24T18:47:58.468Z,2.87
2018-08-24T18:50:26.972Z,3.17
2018-08-24T18:52:55.444Z,3.15
2018-08-24T18:55:24.222Z,2.80
2018-08-24T18:57:52.769Z,3.10
2018-08-24T19:00:21.256Z,2.60
2018-08-24T19:02:49.800Z,2.90
2018-08-24T19:05:18.414Z,2.57
2018-08-24T19:07:46.911Z,2.93
2018-08-24T19:10:15.347Z,4.27
2018-08-24T19:12:43.804Z,3.00
2018-08-24T19:15:12.224Z,2.77
2018-08-24T19:17:45.940Z,3.30
2018-08-24T19:20:19.696Z,2.73
2018-08-24T19:22:50.412Z,2.50
2018-08-24T19:25:19.081Z,2.53
2018-08-24T19:27:53.054Z,2.60
2018-08-24T19:30:34.308Z,3.00
2018-08-24T19:33:03.179Z,2.83
2018-08-24T19:35:32.356Z,3.13
2018-08-24T19:38:01.231Z,2.90
2018-08-24T19:40:34.844Z,3.10
2018-08-24T19:43:03.298Z,2.17
2018-08-24T19:45:31.812Z,3.00
2018-08-24T19:48:05.584Z,4.40
2018-08-24T19:50:33.979Z,3.30
2018-08-24T19:53:02.425Z,2.87
2018-08-24T19:55:31.299Z,2.40
2018-08-24T19:58:04.985Z,3.00
2018-08-24T20:00:33.518Z,2.70
2018-08-24T20:03:02.300Z,2.58
2018-08-24T20:05:30.770Z,2.70
2018-08-24T20:08:04.325Z,2.90
2018-08-24T20:10:32.797Z,2.80
2018-08-24T20:13:01.320Z,2.80
2018-08-24T20:15:34.969Z,3.10
2018-08-24T20:18:03.419Z,3.17
2018-08-24T20:20:32.201Z,3.60
2018-08-24T20:23:00.623Z,3.97
2018-08-24T20:25:29.063Z,2.67
2018-08-24T20:27:57.475Z,4.00
2018-08-24T20:30:25.909Z,3.30
2018-08-24T20:32:54.328Z,4.10
2018-08-24T20:35:22.726Z,3.60
2018-08-24T20:37:51.159Z,3.57
2018-08-24T20:40:19.572Z,4.93
2018-08-24T20:42:48.012Z,5.20
2018-08-24T20:45:16.714Z,4.63
2018-08-24T20:47:45.155Z,5.13
2018-08-24T20:50:13.568Z,5.25
2018-08-24T20:52:43.503Z,6.00
2018-08-24T20:55:12.057Z,5.10
2018-08-24T20:57:40.471Z,5.50
2018-08-24T21:00:09.174Z,5.78
2018-08-24T21:02:37.624Z,6.93
2018-08-24T21:05:06.352Z,7.70
2018-08-24T21:08:08.623Z,6.40
2018-08-24T21:10:37.236Z,7.20
2018-08-24T21:13:05.855Z,7.30
2018-08-24T21:15:34.280Z,8.10
2018-08-24T21:18:02.686Z,7.57
2018-08-24T21:20:31.388Z,7.30
2018-08-24T21:22:59.820Z,7.95
2018-08-24T21:25:28.515Z,9.20
2018-08-24T21:27:56.962Z,7.60
2018-08-24T21:30:25.415Z,8.30
2018-08-24T21:32:53.857Z,8.23
2018-08-24T21:35:22.284Z,8.25
2018-08-24T21:37:50.773Z,7.77
2018-08-24T21:40:19.397Z,9.60
2018-08-24T21:42:47.859Z,8.53
2018-08-24T21:45:16.317Z,9.07
2018-08-24T21:47:44.740Z,6.12
2018-08-24T21:50:13.131Z,7.37
2018-08-24T21:52:41.628Z,8.60
2018-08-24T21:55:10.080Z,9.00
2018-08-24T21:57:38.508Z,7.67
2018-08-24T22:00:10.686Z,8.50
2018-08-24T22:02:39.163Z,6.93
2018-08-24T22:05:07.637Z,8.90
2018-08-24T22:07:36.078Z,7.87
2018-08-24T22:10:05.046Z,8.83
2018-08-24T22:12:33.503Z,8.87
2018-08-24T22:15:01.954Z,8.33
2018-08-24T22:17:30.443Z,10.07
2018-08-24T22:19:58.887Z,6.72
2018-08-24T22:22:27.336Z,8.00
2018-08-24T22:24:55.802Z,8.60
2018-08-24T22:27:24.230Z,8.47
2018-08-24T22:29:52.947Z,9.23
2018-08-24T22:32:21.319Z,8.70
2018-08-24T22:34:49.821Z,8.37
2018-08-24T22:37:18.248Z,8.50
2018-08-24T22:39:46.932Z,9.77
2018-08-24T22:42:15.366Z,9.70
2018-08-24T22:44:43.758Z,9.90
2018-08-24T22:47:12.284Z,11.53
2018-08-24T22:49:40.734Z,9.13
2018-08-24T22:52:09.181Z,10.57
2018-08-24T22:54:37.597Z,9.67
2018-08-24T22:57:06.103Z,12.00
2018-08-24T22:59:34.707Z,9.53
2018-08-24T23:02:03.616Z,10.10
2018-08-24T23:04:32.073Z,10.17
2018-08-24T23:07:00.515Z,11.30
2018-08-24T23:09:28.980Z,10.87
2018-08-24T23:11:57.387Z,10.20
2018-08-24T23:14:25.878Z,8.80
2018-08-24T23:19:53.281Z,9.13
2018-08-24T23:22:21.915Z,12.10
2018-08-24T23:24:50.380Z,10.70
2018-08-24T23:27:18.802Z,10.43
2018-08-24T23:29:47.260Z,11.60
2018-08-24T23:32:15.705Z,11.03
2018-08-24T23:34:44.172Z,9.53
2018-08-24T23:37:12.606Z,12.40
2018-08-24T23:39:41.119Z,12.70
2018-08-24T23:42:09.576Z,10.90
2018-08-24T23:44:38.055Z,10.07
2018-08-24T23:47:06.493Z,9.77
2018-08-24T23:49:34.967Z,10.05
2018-08-24T23:52:03.732Z,11.03
2018-08-24T23:54:32.172Z,8.37
2018-08-24T23:57:00.587Z,8.57
2018-08-24T23:59:29.065Z,10.73
